KMRY/MRY METAR and TAF weather

Enter ICAO airport designator
Station Type Date Time Source
KMRY METAR 2019/05/26 22:54 UTC NOAA

KMRY 262254Z 27011KT 10SM BKN031 15/06 A2994 RMK AO2 SLP150 T01500056


Station Type Date Time Source
KMRY Decoded METAR 2019/05/26 22:54 UTC NOAA

MONTEREY PENINSULA AIRPORT, CA, United States (KMRY) 36-35N 121-51W 66M
May 26, 2019 - 06:54 PM EDT / 2019.05.26 2254 UTC
Wind: from the W (270 degrees) at 13 MPH (11 KT):0
Visibility: 10 mile(s):0
Sky conditions: mostly cloudy
Temperature: 59.0 F (15.0 C)
Dew Point: 42.1 F (5.6 C)
Relative Humidity: 53%
Pressure (altimeter): 29.94 in. Hg (1013 hPa)
ob: KMRY 262254Z 27011KT 10SM BKN031 15/06 A2994 RMK AO2 SLP150 T01500056
cycle: 23

Station Type Date Time Source
KMRY TAF 2019/05/26 18:30 UTC NOAA

TAF KMRY 261727Z 2618/2718 26012G20KT P6SM -SHRA SCT015 BKN040 BKN060
FM261900 25015G24KT P6SM -SHRA VCTS FEW015 BKN035 BKN050CB
FM270200 24011KT P6SM -SHRA SCT040 BKN050
FM270400 23008KT P6SM VCSH BKN035
FM270600 VRB05KT P6SM BKN020 OVC030

Example: see airport list